createdAt,value
2019-05-22T00:00:49.771Z,17.70
2019-05-22T00:03:21.992Z,13.27
2019-05-22T00:05:56.273Z,17.70
2019-05-22T00:08:27.546Z,17.98
2019-05-22T00:11:01.665Z,17.50
2019-05-22T00:13:32.696Z,17.87
2019-05-22T00:16:04.241Z,17.63
2019-05-22T00:18:38.470Z,19.30
2019-05-22T00:21:11.700Z,18.17
2019-05-22T00:23:46.577Z,17.73
2019-05-22T00:26:19.827Z,18.20
2019-05-22T00:28:49.578Z,19.57
2019-05-22T00:31:20.250Z,19.53
2019-05-22T00:33:50.349Z,17.90
2019-05-22T00:36:20.599Z,18.07
2019-05-22T00:38:50.691Z,18.20
2019-05-22T00:41:23.355Z,18.07
2019-05-22T00:43:53.048Z,19.20
2019-05-22T00:46:24.670Z,18.97
2019-05-22T00:48:54.847Z,20.17
2019-05-22T00:51:48.071Z,20.25
2019-05-22T00:54:35.158Z,21.03
2019-05-22T00:57:14.490Z,20.70
2019-05-22T00:59:45.901Z,18.50
2019-05-22T01:02:18.824Z,20.72
2019-05-22T01:04:52.194Z,19.90
2019-05-22T01:07:30.558Z,18.10
2019-05-22T01:10:03.714Z,20.87
2019-05-22T01:12:42.401Z,20.87
2019-05-22T01:15:15.266Z,21.33
2019-05-22T01:17:47.093Z,19.10
2019-05-22T01:20:18.959Z,23.57
2019-05-22T01:22:49.933Z,21.23
2019-05-22T01:25:22.621Z,22.00
2019-05-22T01:27:52.720Z,22.07
2019-05-22T01:30:29.140Z,22.03
2019-05-22T01:33:01.777Z,22.20
2019-05-22T01:35:36.681Z,22.83
2019-05-22T01:38:07.074Z,23.90
2019-05-22T01:40:44.861Z,22.75
2019-05-22T01:43:17.601Z,21.82
2019-05-22T01:45:53.741Z,23.52
2019-05-22T01:48:31.563Z,22.62
2019-05-22T01:51:05.365Z,22.13
2019-05-22T01:53:38.399Z,20.45
2019-05-22T01:56:11.381Z,21.47
2019-05-22T01:58:43.605Z,22.00
2019-05-22T02:01:17.564Z,19.93
2019-05-22T02:03:47.857Z,18.98
2019-05-22T02:06:19.292Z,18.48
2019-05-22T02:08:53.534Z,21.27
2019-05-22T02:11:26.157Z,18.30
2019-05-22T02:14:06.180Z,19.47
2019-05-22T02:16:36.643Z,18.20
2019-05-22T02:19:06.323Z,18.37
2019-05-22T02:21:36.051Z,18.17
2019-05-22T02:24:07.357Z,18.90
2019-05-22T02:26:39.293Z,18.70
2019-05-22T02:29:13.973Z,18.53
2019-05-22T02:31:44.432Z,17.87
2019-05-22T02:34:14.882Z,16.67
2019-05-22T02:36:45.817Z,18.17
2019-05-22T02:39:26.996Z,18.77
2019-05-22T02:42:00.444Z,17.62
2019-05-22T02:44:31.417Z,16.43
2019-05-22T02:47:18.258Z,14.47
2019-05-22T02:49:33.959Z,15.80
2019-05-22T02:52:05.440Z,17.57
2019-05-22T02:54:35.946Z,17.60
2019-05-22T02:57:06.944Z,15.53
2019-05-22T02:59:37.400Z,14.40
2019-05-22T03:02:08.467Z,14.23
2019-05-22T03:04:57.551Z,14.83
2019-05-22T03:07:28.573Z,14.80
2019-05-22T03:09:59.304Z,14.90
2019-05-22T03:12:32.316Z,13.93
2019-05-22T03:15:02.735Z,13.67
2019-05-22T03:17:33.420Z,12.73
2019-05-22T03:20:11.320Z,14.57
2019-05-22T03:22:54.637Z,12.10
2019-05-22T03:25:27.999Z,12.85
2019-05-22T03:27:58.029Z,12.47
2019-05-22T03:30:32.424Z,11.60
2019-05-22T03:33:04.052Z,10.77
2019-05-22T03:35:42.382Z,10.40
2019-05-22T03:38:12.269Z,10.83
2019-05-22T03:40:42.894Z,10.50
2019-05-22T03:43:20.754Z,10.60
2019-05-22T03:45:53.027Z,11.20
2019-05-22T03:48:23.877Z,9.93
2019-05-22T03:50:57.084Z,9.80
2019-05-22T03:53:27.338Z,10.05
2019-05-22T03:55:57.978Z,8.10
2019-05-22T03:58:28.824Z,9.03
2019-05-22T04:01:01.215Z,9.03
2019-05-22T04:03:31.560Z,9.43
2019-05-22T04:06:01.290Z,9.95
2019-05-22T04:08:32.997Z,9.40
2019-05-22T04:11:07.343Z,8.70
2019-05-22T04:13:37.738Z,9.30
2019-05-22T04:16:10.781Z,10.20
2019-05-22T04:18:40.942Z,10.53
2019-05-22T04:21:11.206Z,9.95
2019-05-22T04:23:41.154Z,9.80
2019-05-22T04:26:12.620Z,10.13
2019-05-22T04:28:52.766Z,9.97
2019-05-22T04:31:42.726Z,11.20
2019-05-22T04:34:12.932Z,10.90
2019-05-22T04:36:42.601Z,10.93
2019-05-22T04:39:20.256Z,11.00
2019-05-22T04:41:50.366Z,11.25
2019-05-22T04:44:20.246Z,10.03
2019-05-22T04:46:50.371Z,10.25
2019-05-22T04:49:20.451Z,11.87
2019-05-22T04:51:50.280Z,10.30
2019-05-22T04:54:20.035Z,12.95
2019-05-22T04:56:51.539Z,12.23
2019-05-22T04:59:21.514Z,15.32
2019-05-22T05:01:51.529Z,15.57
2019-05-22T05:04:21.448Z,14.90
2019-05-22T05:06:51.614Z,17.63
2019-05-22T05:09:22.780Z,16.10
2019-05-22T05:11:53.643Z,20.25
2019-05-22T05:14:23.405Z,19.33
2019-05-22T05:16:53.224Z,18.57
2019-05-22T05:19:23.559Z,21.07
2019-05-22T05:21:53.683Z,21.23
2019-05-22T05:24:23.540Z,21.23
2019-05-22T05:26:54.791Z,20.15
2019-05-22T05:29:30.272Z,19.48
2019-05-22T05:32:00.745Z,18.27
2019-05-22T05:34:55.593Z,18.57
2019-05-22T05:37:26.268Z,16.23
2019-05-22T05:40:39.303Z,16.67
2019-05-22T05:43:11.766Z,14.33
2019-05-22T05:45:43.469Z,14.97
2019-05-22T05:48:20.381Z,13.22
2019-05-22T05:51:22.120Z,13.90
2019-05-22T05:54:03.114Z,14.45
2019-05-22T05:56:35.632Z,17.23
2019-05-22T05:59:06.774Z,16.03
2019-05-22T06:01:46.377Z,15.93
2019-05-22T06:04:34.051Z,15.47
2019-05-22T06:07:26.723Z,15.18
2019-05-22T06:10:42.332Z,15.17
2019-05-22T06:13:12.787Z,15.15
2019-05-22T06:16:23.969Z,16.87
2019-05-22T06:18:57.131Z,17.90
2019-05-22T06:21:27.435Z,15.77
2019-05-22T06:24:27.611Z,17.47
2019-05-22T06:27:21.871Z,15.05
2019-05-22T06:30:10.561Z,17.03
2019-05-22T06:33:17.840Z,17.60
2019-05-22T06:35:49.798Z,20.05
2019-05-22T06:38:52.394Z,20.33
2019-05-22T06:41:25.161Z,19.43
2019-05-22T06:44:41.950Z,17.97
2019-05-22T06:47:13.966Z,23.97
2019-05-22T06:49:45.375Z,27.42
2019-05-22T06:52:15.912Z,25.80
2019-05-22T06:54:46.595Z,26.52
2019-05-22T06:57:20.382Z,28.50
2019-05-22T07:00:10.837Z,27.82
2019-05-22T07:02:23.649Z,19.98
2019-05-22T07:04:53.632Z,25.40
2019-05-22T07:07:26.773Z,25.17
2019-05-22T07:09:57.514Z,24.63
2019-05-22T07:12:29.205Z,21.40
2019-05-22T07:15:27.294Z,21.07
2019-05-22T07:17:57.652Z,24.20
2019-05-22T07:20:32.436Z,20.10
2019-05-22T07:23:04.127Z,21.83
2019-05-22T07:25:35.322Z,22.02
2019-05-22T07:28:06.867Z,24.10
2019-05-22T07:30:36.777Z,20.50
2019-05-22T07:33:07.241Z,23.90
2019-05-22T07:35:55.985Z,21.30
2019-05-22T07:38:09.086Z,21.30
2019-05-22T07:40:39.651Z,19.25
2019-05-22T07:43:09.505Z,21.40
2019-05-22T07:45:39.791Z,14.80
2019-05-22T07:48:11.218Z,19.70
2019-05-22T07:50:47.982Z,18.95
2019-05-22T07:53:16.875Z,19.77
2019-05-22T07:55:47.876Z,20.32
2019-05-22T07:58:18.623Z,20.00
2019-05-22T08:00:58.968Z,20.77
2019-05-22T08:03:30.674Z,21.33
2019-05-22T08:06:00.566Z,19.70
2019-05-22T08:08:34.125Z,21.35
2019-05-22T08:11:04.917Z,22.07
2019-05-22T08:13:35.647Z,21.87
2019-05-22T08:16:06.246Z,20.23
2019-05-22T08:18:39.927Z,21.63
2019-05-22T08:21:10.670Z,19.60
2019-05-22T08:23:40.795Z,17.93
2019-05-22T08:26:11.446Z,19.87
2019-05-22T08:28:41.584Z,21.93
2019-05-22T08:31:13.023Z,20.20
2019-05-22T08:33:43.451Z,21.00
2019-05-22T08:36:13.893Z,20.10
2019-05-22T08:38:45.480Z,18.40
2019-05-22T08:41:18.915Z,19.67
2019-05-22T08:44:13.582Z,17.13
2019-05-22T08:46:22.069Z,17.33
2019-05-22T08:48:53.119Z,17.35
2019-05-22T08:51:23.131Z,15.77
2019-05-22T08:53:53.202Z,16.00
2019-05-22T08:56:24.442Z,17.30
2019-05-22T08:58:55.194Z,16.37
2019-05-22T09:01:25.495Z,15.00
2019-05-22T09:03:56.627Z,15.40
2019-05-22T09:06:26.571Z,13.85
2019-05-22T09:08:56.247Z,13.37
2019-05-22T09:11:25.932Z,11.73
2019-05-22T09:13:55.659Z,9.27
2019-05-22T09:16:25.450Z,11.73
2019-05-22T09:18:55.850Z,13.05
2019-05-22T09:21:26.534Z,11.80
2019-05-22T09:23:56.329Z,8.97
2019-05-22T09:26:27.453Z,10.15
2019-05-22T09:28:57.128Z,11.00
2019-05-22T09:31:26.795Z,10.90
2019-05-22T09:33:56.461Z,11.50
2019-05-22T09:36:26.119Z,10.90
2019-05-22T09:39:04.205Z,10.30
2019-05-22T09:41:34.170Z,10.78
2019-05-22T09:44:04.239Z,9.90
2019-05-22T09:46:33.966Z,9.80
2019-05-22T09:49:04.281Z,11.27
2019-05-22T09:51:34.282Z,9.80
2019-05-22T09:54:05.144Z,10.97
2019-05-22T09:56:35.259Z,11.33
2019-05-22T09:59:05.361Z,11.40
2019-05-22T10:01:35.029Z,9.87
2019-05-22T10:04:06.009Z,12.33
2019-05-22T10:06:36.048Z,11.27
2019-05-22T10:09:07.373Z,10.23
2019-05-22T10:11:38.029Z,11.08
2019-05-22T10:14:08.842Z,10.83
2019-05-22T10:16:39.281Z,10.30
2019-05-22T10:19:09.608Z,10.77
2019-05-22T10:21:40.220Z,10.80
2019-05-22T10:24:10.319Z,10.10
2019-05-22T10:26:40.629Z,10.40
2019-05-22T10:29:10.402Z,10.57
2019-05-22T10:31:40.144Z,10.90
2019-05-22T10:34:09.887Z,10.10
2019-05-22T10:36:43.086Z,12.20
2019-05-22T10:39:12.086Z,11.07
2019-05-22T10:41:42.011Z,9.97
2019-05-22T10:44:11.778Z,11.67
2019-05-22T10:46:41.881Z,12.93
2019-05-22T10:49:11.722Z,12.30
2019-05-22T10:51:41.671Z,13.37
2019-05-22T10:54:11.483Z,13.63
2019-05-22T10:56:41.157Z,14.55
2019-05-22T10:59:11.007Z,15.27
2019-05-22T11:01:40.936Z,14.67
2019-05-22T11:04:11.457Z,16.27
2019-05-22T11:06:41.192Z,15.57
2019-05-22T11:09:11.835Z,15.60
2019-05-22T11:11:42.752Z,12.88
2019-05-22T11:14:13.340Z,15.73
2019-05-22T11:16:43.176Z,18.27
2019-05-22T11:19:12.925Z,17.03
2019-05-22T11:21:43.450Z,16.12
2019-05-22T11:24:13.478Z,18.20
2019-05-22T11:26:43.795Z,18.10
2019-05-22T11:29:13.915Z,17.60
2019-05-22T11:31:44.252Z,18.40
2019-05-22T11:34:14.329Z,19.50
2019-05-22T11:36:43.995Z,17.67
2019-05-22T11:39:16.846Z,17.42
2019-05-22T11:41:46.665Z,17.60
2019-05-22T11:44:16.785Z,16.53
2019-05-22T11:46:46.544Z,17.70
2019-05-22T11:49:16.564Z,18.17
2019-05-22T11:51:46.810Z,17.00
2019-05-22T11:54:16.568Z,16.13
2019-05-22T11:56:46.525Z,17.67
2019-05-22T11:59:16.692Z,17.37
2019-05-22T12:01:46.608Z,17.67
2019-05-22T12:04:16.847Z,12.97
2019-05-22T12:06:47.407Z,16.33
2019-05-22T12:09:17.046Z,17.90
2019-05-22T12:11:47.659Z,17.47
2019-05-22T12:14:18.417Z,16.40
2019-05-22T12:16:52.923Z,17.50
2019-05-22T12:19:22.185Z,16.20
2019-05-22T12:21:52.188Z,16.83
2019-05-22T12:24:27.447Z,16.07
2019-05-22T12:26:53.312Z,16.27
2019-05-22T12:29:24.514Z,15.43
2019-05-22T12:31:54.384Z,14.83
2019-05-22T12:34:24.710Z,15.17
2019-05-22T12:36:54.792Z,15.28
2019-05-22T12:39:25.355Z,13.30
2019-05-22T12:41:56.314Z,13.43
2019-05-22T12:44:25.981Z,12.53
2019-05-22T12:46:55.836Z,14.23
2019-05-22T12:49:27.377Z,14.68
2019-05-22T12:51:58.166Z,14.37
2019-05-22T12:54:45.297Z,14.17
2019-05-22T12:56:59.924Z,13.48
2019-05-22T12:59:30.431Z,12.82
2019-05-22T13:02:00.433Z,13.38
2019-05-22T13:04:31.047Z,13.60
2019-05-22T13:07:01.276Z,13.53
2019-05-22T13:09:31.550Z,9.58
2019-05-22T13:12:01.242Z,11.83
2019-05-22T13:14:31.008Z,10.77
2019-05-22T13:17:01.524Z,11.57
2019-05-22T13:19:33.226Z,11.87
2019-05-22T13:22:04.757Z,11.77
2019-05-22T13:24:36.799Z,11.43
2019-05-22T13:27:09.857Z,11.77
2019-05-22T13:29:41.625Z,11.20
2019-05-22T13:32:14.058Z,10.83
2019-05-22T13:34:44.181Z,11.77
2019-05-22T13:37:15.034Z,10.60
2019-05-22T13:39:44.982Z,9.33
2019-05-22T13:42:15.949Z,8.85
2019-05-22T13:44:46.007Z,10.30
2019-05-22T13:47:16.288Z,8.40
2019-05-22T13:49:46.385Z,10.23
2019-05-22T13:52:16.404Z,9.50
2019-05-22T13:54:46.492Z,10.10
2019-05-22T13:57:16.679Z,10.70
2019-05-22T13:59:46.538Z,8.90
2019-05-22T14:02:17.263Z,9.30
2019-05-22T14:04:46.929Z,10.27
2019-05-22T14:07:16.938Z,9.53
2019-05-22T14:09:47.147Z,9.60
2019-05-22T14:12:17.067Z,9.30
2019-05-22T14:14:46.836Z,9.20
2019-05-22T14:17:17.711Z,10.40
2019-05-22T14:19:47.481Z,9.17
2019-05-22T14:22:17.394Z,7.60
2019-05-22T14:24:47.554Z,8.70
2019-05-22T14:27:17.441Z,7.67
2019-05-22T14:29:47.237Z,8.30
2019-05-22T14:32:17.971Z,9.87
2019-05-22T14:34:47.618Z,10.10
2019-05-22T14:37:17.555Z,9.43
2019-05-22T14:39:47.823Z,11.17
2019-05-22T14:42:20.667Z,8.53
2019-05-22T14:44:50.834Z,10.77
2019-05-22T14:47:21.256Z,10.30
2019-05-22T14:49:51.046Z,10.50
2019-05-22T14:52:20.903Z,7.60
2019-05-22T14:54:50.902Z,8.95
2019-05-22T14:57:21.181Z,10.33
2019-05-22T14:59:51.189Z,11.00
2019-05-22T15:02:20.973Z,10.47
2019-05-22T15:04:51.239Z,11.43
2019-05-22T15:07:21.136Z,10.47
2019-05-22T15:09:50.877Z,10.87
2019-05-22T15:12:20.646Z,11.87
2019-05-22T15:14:50.630Z,10.72
2019-05-22T15:17:32.190Z,11.20
2019-05-22T15:19:53.131Z,12.33
2019-05-22T15:22:22.950Z,10.27
2019-05-22T15:24:54.505Z,10.90
2019-05-22T15:27:25.551Z,11.47
2019-05-22T15:29:55.825Z,10.80
2019-05-22T15:32:26.294Z,11.27
2019-05-22T15:34:56.512Z,10.43
2019-05-22T15:37:27.473Z,10.80
2019-05-22T15:40:03.222Z,10.08
2019-05-22T15:42:38.824Z,10.93
2019-05-22T15:45:14.288Z,9.93
2019-05-22T15:47:54.644Z,9.63
2019-05-22T15:50:21.653Z,9.60
2019-05-22T15:52:57.060Z,10.30
2019-05-22T15:55:30.072Z,10.70
2019-05-22T15:58:00.828Z,10.87
2019-05-22T16:00:35.722Z,11.10
2019-05-22T16:03:12.633Z,9.45
2019-05-22T16:05:43.780Z,10.33
2019-05-22T16:08:14.820Z,10.30
2019-05-22T16:10:48.158Z,10.37
2019-05-22T16:13:20.092Z,6.75
2019-05-22T16:15:51.826Z,9.40
2019-05-22T16:18:25.381Z,11.67
2019-05-22T16:20:57.063Z,9.58
2019-05-22T16:23:28.494Z,7.78
2019-05-22T16:25:58.413Z,9.97
2019-05-22T16:28:33.238Z,11.38
2019-05-22T16:31:00.944Z,10.97
2019-05-22T16:33:31.259Z,9.80
2019-05-22T16:36:01.490Z,10.77
2019-05-22T16:38:31.827Z,11.03
2019-05-22T16:41:01.755Z,12.23
2019-05-22T16:43:47.972Z,11.07
2019-05-22T16:46:03.163Z,10.70
2019-05-22T16:48:33.496Z,11.27
2019-05-22T16:51:04.266Z,11.95
2019-05-22T16:53:34.329Z,11.85
2019-05-22T16:56:05.240Z,12.43
2019-05-22T16:58:35.870Z,12.60
2019-05-22T17:01:08.611Z,13.33
2019-05-22T17:03:39.252Z,13.07
2019-05-22T17:06:09.079Z,12.95
2019-05-22T17:08:38.911Z,12.73
2019-05-22T17:11:09.747Z,12.37
2019-05-22T17:13:40.546Z,11.63
2019-05-22T17:16:10.457Z,14.00
2019-05-22T17:18:47.719Z,14.60
2019-05-22T17:21:13.028Z,15.20
2019-05-22T17:23:43.291Z,14.70
2019-05-22T17:26:13.886Z,14.63
2019-05-22T17:28:44.683Z,14.68
2019-05-22T17:31:15.126Z,12.87
2019-05-22T17:33:45.266Z,14.33
2019-05-22T17:36:16.770Z,14.07
2019-05-22T17:38:46.939Z,13.73
2019-05-22T17:41:16.846Z,13.97
2019-05-22T17:43:47.536Z,13.50
2019-05-22T17:46:17.952Z,13.90
2019-05-22T17:48:48.453Z,14.00
2019-05-22T17:51:19.674Z,13.67
2019-05-22T17:53:49.495Z,13.50
2019-05-22T17:56:20.016Z,14.87
2019-05-22T17:58:49.684Z,13.53
2019-05-22T18:01:19.679Z,13.85
2019-05-22T18:03:49.588Z,14.50
2019-05-22T18:06:19.623Z,13.23
2019-05-22T18:08:49.529Z,12.73
2019-05-22T18:11:19.672Z,14.07
2019-05-22T18:13:58.565Z,14.15
2019-05-22T18:16:28.660Z,14.33
2019-05-22T18:18:58.611Z,14.60
2019-05-22T18:21:29.741Z,13.62
2019-05-22T18:23:59.739Z,14.37
2019-05-22T18:26:29.929Z,13.70
2019-05-22T18:29:00.634Z,14.10
2019-05-22T18:31:30.529Z,14.18
2019-05-22T18:34:00.336Z,14.30
2019-05-22T18:36:30.009Z,14.00
2019-05-22T18:38:59.736Z,12.27
2019-05-22T18:41:29.484Z,13.97
2019-05-22T18:43:59.649Z,14.33
2019-05-22T18:46:29.834Z,15.13
2019-05-22T18:49:00.007Z,14.33
2019-05-22T18:51:30.440Z,14.58
2019-05-22T18:54:00.749Z,14.10
2019-05-22T18:56:30.415Z,14.40
2019-05-22T18:59:00.589Z,13.30
2019-05-22T19:01:31.185Z,14.90
2019-05-22T19:04:00.953Z,15.03
2019-05-22T19:06:31.108Z,11.12
2019-05-22T19:09:00.904Z,14.63
2019-05-22T19:11:32.671Z,14.47
2019-05-22T19:14:03.478Z,14.35
2019-05-22T19:16:34.434Z,14.30
2019-05-22T19:19:04.338Z,13.90
2019-05-22T19:21:34.213Z,14.47
2019-05-22T19:24:04.129Z,14.20
2019-05-22T19:26:34.011Z,15.00
2019-05-22T19:29:04.112Z,14.87
2019-05-22T19:31:34.530Z,13.70
2019-05-22T19:34:04.483Z,15.63
2019-05-22T19:36:34.505Z,13.17
2019-05-22T19:39:07.998Z,14.03
2019-05-22T19:41:39.018Z,14.75
2019-05-22T19:44:09.358Z,13.97
2019-05-22T19:46:40.638Z,13.90
2019-05-22T19:49:11.017Z,14.57
2019-05-22T19:51:41.935Z,13.08
2019-05-22T19:54:12.191Z,13.68
2019-05-22T19:56:43.955Z,13.65
2019-05-22T19:59:14.410Z,15.07
2019-05-22T20:01:45.977Z,13.48
2019-05-22T20:04:15.923Z,13.43
2019-05-22T20:06:45.633Z,14.10
2019-05-22T20:09:15.795Z,13.77
2019-05-22T20:11:48.133Z,12.90
2019-05-22T20:14:19.027Z,12.78
2019-05-22T20:16:50.191Z,13.65
2019-05-22T20:19:20.268Z,11.30
2019-05-22T20:21:50.396Z,12.50
2019-05-22T20:24:20.499Z,12.20
2019-05-22T20:26:52.038Z,13.03
2019-05-22T20:29:22.334Z,12.15
2019-05-22T20:31:52.550Z,12.53
2019-05-22T20:34:22.468Z,13.87
2019-05-22T20:36:52.807Z,12.33
2019-05-22T20:39:22.459Z,11.50
2019-05-22T20:41:52.271Z,12.50
2019-05-22T20:44:22.759Z,13.50
2019-05-22T20:46:53.271Z,12.67
2019-05-22T20:49:23.488Z,10.63
2019-05-22T20:51:53.588Z,12.57
2019-05-22T20:54:24.695Z,11.30
2019-05-22T20:56:56.831Z,11.93
2019-05-22T20:59:27.567Z,13.03
2019-05-22T21:01:58.347Z,12.70
2019-05-22T21:04:29.733Z,12.57
2019-05-22T21:07:03.138Z,13.03
2019-05-22T21:09:33.585Z,12.40
2019-05-22T21:12:04.885Z,12.10
2019-05-22T21:14:34.626Z,11.60
2019-05-22T21:17:06.136Z,11.60
2019-05-22T21:19:36.195Z,12.07
2019-05-22T21:22:06.472Z,12.10
2019-05-22T21:24:37.178Z,11.68
2019-05-22T21:27:07.589Z,11.83
2019-05-22T21:29:38.072Z,11.00
2019-05-22T21:32:08.322Z,11.08
2019-05-22T21:34:39.155Z,11.23
2019-05-22T21:37:10.702Z,12.03
2019-05-22T21:39:42.090Z,12.10
2019-05-22T21:42:12.086Z,11.30
2019-05-22T21:44:42.071Z,11.80
2019-05-22T21:47:13.740Z,10.83
2019-05-22T21:49:44.233Z,12.07
2019-05-22T21:52:14.333Z,9.95
2019-05-22T21:54:44.354Z,11.47
2019-05-22T21:57:14.883Z,12.30
2019-05-22T21:59:45.022Z,11.07
2019-05-22T22:02:22.783Z,11.53
2019-05-22T22:04:53.324Z,11.80
2019-05-22T22:07:23.397Z,12.47
2019-05-22T22:09:54.335Z,10.87
2019-05-22T22:12:25.267Z,12.03
2019-05-22T22:14:55.607Z,12.40
2019-05-22T22:17:27.244Z,11.17
2019-05-22T22:19:57.082Z,11.97
2019-05-22T22:22:29.696Z,11.43
2019-05-22T22:24:59.736Z,11.23
2019-05-22T22:27:29.520Z,11.83
2019-05-22T22:30:00.160Z,11.70
2019-05-22T22:32:31.477Z,11.57
2019-05-22T22:35:01.217Z,10.17
2019-05-22T22:37:32.456Z,11.53
2019-05-22T22:40:03.129Z,10.80
2019-05-22T22:42:36.797Z,11.03
2019-05-22T22:45:08.535Z,11.07
2019-05-22T22:47:41.673Z,10.47
2019-05-22T22:50:13.030Z,10.47
2019-05-22T22:52:45.032Z,10.00
2019-05-22T22:55:19.070Z,10.40
2019-05-22T22:57:49.714Z,11.15
2019-05-22T23:00:27.035Z,11.20
2019-05-22T23:02:59.187Z,10.60
2019-05-22T23:05:29.023Z,10.07
2019-05-22T23:08:00.525Z,10.53
2019-05-22T23:10:31.288Z,9.97
2019-05-22T23:13:01.288Z,10.43
2019-05-22T23:15:31.864Z,10.17
2019-05-22T23:18:04.194Z,9.83
2019-05-22T23:20:33.838Z,10.53
2019-05-22T23:23:02.154Z,10.13
2019-05-22T23:25:33.479Z,9.63
2019-05-22T23:28:04.655Z,10.70
2019-05-22T23:30:34.785Z,9.50
2019-05-22T23:33:04.774Z,9.30
2019-05-22T23:35:34.889Z,9.73
2019-05-22T23:38:04.690Z,8.90
2019-05-22T23:40:37.277Z,9.37
2019-05-22T23:43:08.625Z,8.67
2019-05-22T23:45:39.733Z,8.93
2019-05-22T23:48:16.759Z,9.10
2019-05-22T23:50:48.303Z,8.93
2019-05-22T23:53:18.693Z,7.85
2019-05-22T23:55:48.584Z,8.37
2019-05-22T23:58:20.024Z,8.10
